Time;durP1;ratioP1;P1;durP2;ratioP2;P2;SDS_P1;SDS_P2;PMS_P1;PMS_P2;Temp;Humidity;BMP_temperature;BMP_pressure;BME280_temperature;BME280_humidity;BME280_pressure;Samples;Min_cycle;Max_cycle;Signal;HPM_P1;HPM_P2
2022/02/14 00:00:56;;;;;;;1999.90;999.90;;;;;;;2.26;79.18;163001.25;5020707;28;20085;-68
2022/02/14 00:03:23;;;;;;;1999.90;999.90;;;;;;;2.12;79.92;162962.91;5015615;28;20502;-68
2022/02/14 00:05:50;;;;;;;1999.90;999.90;;;;;;;2.04;80.81;162942.38;5014696;28;20053;-67
2022/02/14 00:08:17;;;;;;;1999.90;999.90;;;;;;;2.45;78.91;163051.88;5011759;28;20081;-69
2022/02/14 00:10:43;;;;;;;1999.90;999.90;;;;;;;2.61;78.30;163094.34;5015512;28;20058;-69
2022/02/14 00:13:11;;;;;;;1999.90;999.90;;;;;;;2.84;77.74;163153.28;5017232;28;20081;-69
2022/02/14 00:15:37;;;;;;;1999.90;999.90;;;;;;;2.63;78.67;163098.47;5011467;28;20058;-69
2022/02/14 00:18:04;;;;;;;1999.90;999.90;;;;;;;2.95;77.50;163183.44;5019019;28;20049;-69
2022/02/14 00:20:30;;;;;;;1999.90;999.90;;;;;;;3.17;76.90;163243.72;5014316;28;20049;-68
2022/02/14 00:22:57;;;;;;;1999.90;999.90;;;;;;;3.25;76.45;163264.25;5016065;28;20069;-68
2022/02/14 00:25:23;;;;;;;1999.90;999.90;;;;;;;2.97;77.38;163188.88;5028655;28;20093;-68
2022/02/14 00:27:50;;;;;;;1999.90;999.90;;;;;;;2.71;78.06;163120.41;5013641;28;20120;-68
2022/02/14 00:30:17;;;;;;;1999.90;999.90;;;;;;;2.80;78.29;163145.06;5021944;28;20049;-68
2022/02/14 00:32:43;;;;;;;1999.90;999.90;;;;;;;2.84;78.34;163153.28;5012980;28;20105;-68
2022/02/14 00:35:13;;;;;;;1999.90;999.90;;;;;;;3.22;77.18;163254.69;5013906;28;20089;-68
2022/02/14 00:37:40;;;;;;;1999.90;999.90;;;;;;;3.14;77.21;163235.50;5015391;28;20057;-68
2022/02/14 00:40:08;;;;;;;1999.90;999.90;;;;;;;3.35;76.48;163290.31;5027959;28;20389;-68
2022/02/14 00:42:34;;;;;;;1999.90;999.90;;;;;;;3.44;75.58;163314.97;5026189;28;20095;-68
2022/02/14 00:45:01;;;;;;;1999.90;999.90;;;;;;;3.57;75.66;163347.84;5026107;28;20212;-68
2022/02/14 00:47:28;;;;;;;1999.90;999.90;;;;;;;3.54;75.43;163340.97;5022428;28;20319;-69
2022/02/14 00:49:57;;;;;;;1999.90;999.90;;;;;;;3.58;75.17;163350.59;5014522;28;20099;-69
2022/02/14 00:52:26;;;;;;;1999.90;999.90;;;;;;;3.58;75.33;163350.59;5017433;28;20084;-68
2022/02/14 00:54:57;;;;;;;1999.90;999.90;;;;;;;3.58;75.43;163350.59;5019316;28;20049;-68
2022/02/14 00:57:25;;;;;;;1999.90;999.90;;;;;;;3.23;76.34;163257.38;5014575;28;20091;-67
2022/02/14 00:59:52;;;;;;;1999.90;999.90;;;;;;;3.15;76.76;163238.19;5014670;28;20062;-67
2022/02/14 01:02:18;;;;;;;1999.90;999.90;;;;;;;3.27;76.19;163269.72;5023040;28;20080;-68
2022/02/14 01:04:45;;;;;;;1999.90;999.90;;;;;;;3.45;75.55;163317.69;5025521;28;20074;-69
2022/02/14 01:07:11;;;;;;;1999.90;999.90;;;;;;;3.31;75.72;163279.34;5014928;28;20092;-68
2022/02/14 01:09:39;;;;;;;1999.90;999.90;;;;;;;3.45;75.53;163317.69;5026248;28;20084;-68
2022/02/14 01:12:06;;;;;;;1999.90;999.90;;;;;;;3.48;75.14;163324.53;5023932;28;20351;-68
2022/02/14 01:14:32;;;;;;;1999.90;999.90;;;;;;;3.33;75.78;163284.78;5025205;28;21080;-68
2022/02/14 01:16:59;;;;;;;1999.90;999.90;;;;;;;3.39;75.41;163301.25;5013418;28;20362;-68
2022/02/14 01:19:25;;;;;;;1999.90;999.90;;;;;;;3.03;76.78;163205.31;5013052;28;20049;-69
2022/02/14 01:21:52;;;;;;;1999.90;999.90;;;;;;;3.17;76.94;163243.72;5027870;28;20446;-69
2022/02/14 01:24:19;;;;;;;1999.90;999.90;;;;;;;3.04;77.04;163208.06;5019509;28;20046;-69
2022/02/14 01:26:45;;;;;;;1999.90;999.90;;;;;;;3.16;76.90;163240.94;5022121;28;20107;-69
2022/02/14 01:29:12;;;;;;;1999.90;999.90;;;;;;;3.17;77.08;163243.72;5016161;28;20050;-69
2022/02/14 01:31:38;;;;;;;1999.90;999.90;;;;;;;3.33;76.77;163284.78;5014985;28;20087;-69
2022/02/14 01:34:04;;;;;;;1999.90;999.90;;;;;;;3.13;77.39;163231.38;5018936;28;20049;-69
2022/02/14 01:36:31;;;;;;;1999.90;999.90;;;;;;;3.04;78.39;163206.69;5052974;28;20081;-67
2022/02/14 01:38:57;;;;;;;1999.90;999.90;;;;;;;2.93;78.99;163179.31;5016611;28;20105;-69
2022/02/14 01:41:24;;;;;;;1999.90;999.90;;;;;;;3.04;79.16;163208.06;5012366;28;20459;-69
2022/02/14 01:43:50;;;;;;;1999.90;999.90;;;;;;;2.95;79.87;163183.44;5015678;28;20057;-68
2022/02/14 01:46:17;;;;;;;1999.90;999.90;;;;;;;2.76;80.76;163134.09;5022670;28;20045;-68
2022/02/14 01:48:44;;;;;;;1999.90;999.90;;;;;;;2.69;80.74;163114.91;5016347;28;20049;-68
2022/02/14 01:51:10;;;;;;;1999.90;999.90;;;;;;;2.39;83.17;163035.47;5013295;28;20053;-68
2022/02/14 01:53:37;;;;;;;1999.90;999.90;;;;;;;2.62;82.03;163095.72;5012561;28;20090;-68
2022/02/14 01:56:04;;;;;;;1999.90;999.90;;;;;;;2.79;81.49;163140.94;5023482;28;20059;-68
2022/02/14 01:58:30;;;;;;;1999.90;999.90;;;;;;;2.98;80.91;163191.66;5024023;28;20451;-68
2022/02/14 02:00:57;;;;;;;1999.90;999.90;;;;;;;2.63;82.19;163099.88;5014337;28;20081;-68
2022/02/14 02:03:25;;;;;;;1999.90;999.90;;;;;;;2.93;81.30;163179.31;5019560;28;20069;-68
2022/02/14 02:05:52;;;;;;;1999.90;999.90;;;;;;;2.81;82.05;163146.41;5010584;28;20352;-69
2022/02/14 02:08:19;;;;;;;1999.90;999.90;;;;;;;3.14;80.80;163235.50;5019085;28;20085;-68
2022/02/14 02:10:46;;;;;;;1999.90;999.90;;;;;;;3.34;79.51;163287.56;5015226;28;20371;-68
2022/02/14 02:13:16;;;;;;;1999.90;999.90;;;;;;;3.29;80.22;163273.81;5015950;28;20045;-68
2022/02/14 02:15:42;;;;;;;1999.90;999.90;;;;;;;3.33;79.88;163284.78;5017223;28;20132;-68
2022/02/14 02:18:10;;;;;;;1999.90;999.90;;;;;;;3.26;80.55;163265.59;5014673;28;20052;-67
2022/02/14 02:20:37;;;;;;;1999.90;999.90;;;;;;;3.16;81.03;163240.94;5019113;28;20054;-67
2022/02/14 02:23:03;;;;;;;1999.90;999.90;;;;;;;2.78;82.25;163139.59;5012583;28;20061;-67
2022/02/14 02:25:30;;;;;;;1999.90;999.90;;;;;;;2.46;83.99;163054.63;5009361;28;20442;-67
2022/02/14 02:27:56;;;;;;;1999.90;999.90;;;;;;;2.51;83.92;163065.59;5013067;28;20119;-68
2022/02/14 02:30:23;;;;;;;1999.90;999.90;;;;;;;2.39;85.42;163034.09;5016210;28;20085;-68
2022/02/14 02:32:51;;;;;;;1999.90;999.90;;;;;;;2.32;85.68;163014.91;5022610;28;20088;-67
2022/02/14 02:35:17;;;;;;;1999.90;999.90;;;;;;;2.45;84.72;163051.88;5017163;28;20422;-68
2022/02/14 02:37:44;;;;;;;1999.90;999.90;;;;;;;2.28;86.08;163005.34;5017136;28;20116;-68
2022/02/14 02:40:11;;;;;;;1999.90;999.90;;;;;;;2.53;85.09;163072.47;5018856;28;20084;-67
2022/02/14 02:42:39;;;;;;;1999.90;999.90;;;;;;;2.49;85.62;163060.09;5016246;28;20380;-67
2022/02/14 02:45:06;;;;;;;1999.90;999.90;;;;;;;2.61;84.83;163094.34;5008966;28;20073;-67
2022/02/14 02:47:32;;;;;;;1999.90;999.90;;;;;;;2.65;84.32;163103.97;5021439;28;20077;-68
2022/02/14 02:49:59;;;;;;;1999.90;999.90;;;;;;;2.71;84.23;163119.00;5022041;28;20085;-68
2022/02/14 02:52:25;;;;;;;1999.90;999.90;;;;;;;2.62;85.44;163095.72;5016993;28;20042;-67
2022/02/14 02:54:55;;;;;;;1999.90;999.90;;;;;;;2.58;85.31;163086.16;5015014;28;20050;-68
2022/02/14 02:57:23;;;;;;;1999.90;999.90;;;;;;;2.65;85.21;163103.97;5011961;28;20054;-68
2022/02/14 02:59:50;;;;;;;1999.90;999.90;;;;;;;2.83;84.41;163151.91;5016420;28;20081;-67
2022/02/14 03:02:16;;;;;;;1999.90;999.90;;;;;;;2.43;85.91;163045.06;5012441;28;20130;-68
2022/02/14 03:04:44;;;;;;;1999.90;999.90;;;;;;;2.14;87.45;162967.00;5014230;28;20167;-68
2022/02/14 03:07:11;;;;;;;1999.90;999.90;;;;;;;2.67;85.87;163108.09;5008816;28;20073;-68
2022/02/14 03:09:37;;;;;;;1999.90;999.90;;;;;;;2.82;85.18;163149.16;5008239;28;20081;-68
2022/02/14 03:12:04;;;;;;;1999.90;999.90;;;;;;;3.05;83.52;163210.84;5021169;28;20085;-67
2022/02/14 03:14:31;;;;;;;1999.90;999.90;;;;;;;2.93;84.16;163177.91;5017161;28;20132;-67
2022/02/14 03:16:58;;;;;;;1999.90;999.90;;;;;;;3.18;82.98;163246.41;5012078;28;20088;-68
2022/02/14 03:19:25;;;;;;;1999.90;999.90;;;;;;;3.19;83.30;163247.81;5017864;28;20514;-67
2022/02/14 03:21:52;;;;;;;1999.90;999.90;;;;;;;3.11;83.89;163225.88;5021428;28;20076;-68
2022/02/14 03:24:18;;;;;;;1999.90;999.90;;;;;;;2.81;84.98;163147.81;5015957;28;20044;-67
2022/02/14 03:26:45;;;;;;;1999.90;999.90;;;;;;;3.06;83.65;163212.19;5019627;28;20054;-67
2022/02/14 03:29:13;;;;;;;1999.90;999.90;;;;;;;2.97;84.18;163188.88;5023244;28;20466;-68
2022/02/14 03:31:40;;;;;;;1999.90;999.90;;;;;;;2.86;84.85;163160.13;5020962;28;20046;-68
2022/02/14 03:34:07;;;;;;;1999.90;999.90;;;;;;;2.56;85.76;163079.28;5020901;28;20135;-68
2022/02/14 03:36:34;;;;;;;1999.90;999.90;;;;;;;2.58;86.33;163084.78;5020486;28;20193;-67
2022/02/14 03:39:01;;;;;;;1999.90;999.90;;;;;;;2.58;86.35;163084.78;5013048;28;20057;-68
2022/02/14 03:41:27;;;;;;;1999.90;999.90;;;;;;;2.67;86.25;163109.44;5018696;28;20092;-67
2022/02/14 03:43:54;;;;;;;1999.90;999.90;;;;;;;3.05;84.44;163209.44;5014896;28;20099;-68
2022/02/14 03:46:21;;;;;;;1999.90;999.90;;;;;;;2.90;84.72;163169.69;5022277;28;20054;-68
2022/02/14 03:48:48;;;;;;;1999.90;999.90;;;;;;;3.10;84.50;163223.16;5016944;28;20050;-68
2022/02/14 03:51:14;;;;;;;1999.90;999.90;;;;;;;3.05;84.57;163210.84;5017390;28;20194;-67
2022/02/14 03:53:41;;;;;;;1999.90;999.90;;;;;;;3.05;84.33;163210.84;5013303;28;20077;-68
2022/02/14 03:56:07;;;;;;;1999.90;999.90;;;;;;;3.15;84.08;163238.19;5019819;28;20049;-67
2022/02/14 03:58:33;;;;;;;1999.90;999.90;;;;;;;3.10;83.94;163224.50;5018915;28;20069;-68
2022/02/14 04:01:00;;;;;;;1999.90;999.90;;;;;;;2.99;84.67;163194.34;5017823;28;20085;-67
2022/02/14 04:03:27;;;;;;;1999.90;999.90;;;;;;;2.95;84.89;163184.78;5022332;28;20056;-68
2022/02/14 04:05:54;;;;;;;1999.90;999.90;;;;;;;2.91;85.21;163172.47;5016857;28;20428;-68
2022/02/14 04:08:23;;;;;;;1999.90;999.90;;;;;;;2.77;85.47;163135.44;5014853;28;20121;-68
2022/02/14 04:10:52;;;;;;;1999.90;999.90;;;;;;;3.03;84.55;163205.31;5019265;28;20386;-67
2022/02/14 04:13:18;;;;;;;1999.90;999.90;;;;;;;3.10;83.98;163224.50;5014581;28;20050;-68
2022/02/14 04:15:44;;;;;;;1999.90;999.90;;;;;;;3.13;83.92;163232.72;5025881;28;20081;-67
2022/02/14 04:18:11;;;;;;;1999.90;999.90;;;;;;;3.02;84.60;163201.22;5023623;28;20080;-67
2022/02/14 04:20:37;;;;;;;1999.90;999.90;;;;;;;3.25;83.81;163264.25;5016845;28;20135;-68
2022/02/14 04:23:04;;;;;;;1999.90;999.90;;;;;;;3.21;83.69;163251.91;5021532;28;20064;-68
2022/02/14 04:25:31;;;;;;;1999.90;999.90;;;;;;;3.46;82.59;163320.44;5024463;28;20108;-68
2022/02/14 04:27:58;;;;;;;1999.90;999.90;;;;;;;3.33;82.94;163284.78;5022007;28;20389;-67
2022/02/14 04:30:29;;;;;;;1999.90;999.90;;;;;;;3.33;82.71;163286.19;5020276;28;20057;-68
2022/02/14 04:32:59;;;;;;;;;;;;;;;3.44;82.83;163313.56;5024305;28;20046;-68
2022/02/14 04:35:27;;;;;;;1999.90;999.90;;;;;;;3.51;81.99;163334.16;5017542;28;20015;-68
2022/02/14 04:37:54;;;;;;;1999.90;999.90;;;;;;;3.14;82.84;163234.09;5015280;28;20081;-67
2022/02/14 04:40:22;;;;;;;1999.90;999.90;;;;;;;3.32;82.89;163282.03;5024006;28;20372;-68
2022/02/14 04:42:49;;;;;;;1999.90;999.90;;;;;;;3.20;83.31;163250.56;5017033;28;20119;-67
2022/02/14 04:45:15;;;;;;;1999.90;999.90;;;;;;;3.24;82.83;163261.50;5018826;28;20077;-68
2022/02/14 04:47:41;;;;;;;1999.90;999.90;;;;;;;3.61;81.00;163360.19;5019338;28;20085;-68
2022/02/14 04:50:09;;;;;;;1999.90;999.90;;;;;;;3.58;80.37;163350.59;5013536;28;20547;-67
2022/02/14 04:52:35;;;;;;;1999.90;999.90;;;;;;;3.18;81.56;163246.41;5014930;28;20041;-67
2022/02/14 04:55:01;;;;;;;1999.90;999.90;;;;;;;3.03;81.93;163203.97;5017444;28;20090;-67
2022/02/14 04:57:28;;;;;;;1999.90;999.90;;;;;;;3.14;81.34;163235.50;5013530;28;20081;-67
2022/02/14 04:59:54;;;;;;;1999.90;999.90;;;;;;;2.99;81.42;163194.34;5012503;28;20109;-67
2022/02/14 05:02:21;;;;;;;1999.90;999.90;;;;;;;2.68;82.50;163112.19;5011787;28;20046;-68
2022/02/14 05:04:47;;;;;;;1999.90;999.90;;;;;;;2.78;81.77;163139.59;5015545;28;20046;-68
2022/02/14 05:07:14;;;;;;;1999.90;999.90;;;;;;;2.68;81.92;163112.19;5022398;28;20061;-68
2022/02/14 05:09:40;;;;;;;1999.90;999.90;;;;;;;2.48;82.40;163058.75;5024724;28;20143;-68
2022/02/14 05:12:07;;;;;;;1999.90;999.90;;;;;;;2.46;82.99;163053.28;5025445;28;20046;-67
2022/02/14 05:14:33;;;;;;;1999.90;999.90;;;;;;;2.34;83.20;163021.78;5027819;28;20347;-67
2022/02/14 05:17:00;;;;;;;1999.90;999.90;;;;;;;2.54;82.69;163075.16;5015208;28;20140;-68
2022/02/14 05:19:26;;;;;;;1999.90;999.90;;;;;;;2.58;82.63;163084.78;5021407;28;20081;-67
2022/02/14 05:21:53;;;;;;;1999.90;999.90;;;;;;;2.46;82.78;163054.63;5014868;28;20106;-68
2022/02/14 05:24:19;;;;;;;1999.90;999.90;;;;;;;2.41;82.34;163040.97;5010884;28;20074;-68
2022/02/14 05:26:46;;;;;;;1999.90;999.90;;;;;;;2.63;81.80;163098.47;5011257;28;20104;-68
2022/02/14 05:29:12;;;;;;;1999.90;999.90;;;;;;;2.62;80.88;163095.72;5014095;28;20092;-68
2022/02/14 05:31:39;;;;;;;1999.90;999.90;;;;;;;2.71;80.69;163120.41;5010704;28;20077;-68
2022/02/14 05:34:05;;;;;;;1999.90;999.90;;;;;;;2.53;81.03;163072.47;5013715;28;20050;-68
2022/02/14 05:36:32;;;;;;;1999.90;999.90;;;;;;;2.65;81.05;163103.97;5015055;28;20080;-68
2022/02/14 05:38:58;;;;;;;1999.90;999.90;;;;;;;2.50;81.26;163064.25;5012616;28;20402;-68
2022/02/14 05:41:25;;;;;;;1999.90;999.90;;;;;;;2.39;81.85;163035.47;5023092;28;20498;-67
2022/02/14 05:43:51;;;;;;;1999.90;999.90;;;;;;;2.54;81.70;163073.81;5020632;28;20131;-68
2022/02/14 05:46:18;;;;;;;1999.90;999.90;;;;;;;2.73;80.63;163125.88;5017874;28;20049;-68
2022/02/14 05:48:46;;;;;;;1999.90;999.90;;;;;;;2.89;80.27;163166.94;5013405;28;20088;-68
2022/02/14 05:51:14;;;;;;;1999.90;999.90;;;;;;;2.84;79.92;163153.28;5018801;28;20073;-68
2022/02/14 05:53:41;;;;;;;1999.90;999.90;;;;;;;2.53;81.37;163071.06;5017684;28;20498;-67
2022/02/14 05:56:08;;;;;;;1999.90;999.90;;;;;;;2.61;80.95;163093.00;5017310;28;20084;-68
2022/02/14 05:58:41;;;;;;;1999.90;999.90;;;;;;;2.81;79.93;163147.81;5015694;28;20050;-67
2022/02/14 06:01:07;;;;;;;1999.90;999.90;;;;;;;2.70;80.70;163117.66;5012904;28;20085;-68
2022/02/14 06:03:34;;;;;;;1999.90;999.90;;;;;;;2.85;79.87;163156.03;5012418;28;20077;-68
2022/02/14 06:06:01;;;;;;;1999.90;999.90;;;;;;;2.96;79.80;163186.13;5018886;28;20073;-68
2022/02/14 06:08:28;;;;;;;1999.90;999.90;;;;;;;2.69;80.58;163113.53;5015907;28;20134;-67
2022/02/14 06:10:54;;;;;;;1999.90;999.90;;;;;;;2.87;80.14;163161.47;5014179;28;20050;-68
2022/02/14 06:13:21;;;;;;;1999.90;999.90;;;;;;;2.74;80.31;163127.22;5019166;28;20089;-68
2022/02/14 06:15:47;;;;;;;1999.90;999.90;;;;;;;2.67;80.69;163109.44;5017351;28;20081;-68
2022/02/14 06:18:17;;;;;;;1999.90;999.90;;;;;;;2.88;80.03;163164.25;5016976;28;20050;-67
2022/02/14 06:20:43;;;;;;;1999.90;999.90;;;;;;;2.92;79.35;163175.22;5019647;28;20129;-68
2022/02/14 06:23:10;;;;;;;1999.90;999.90;;;;;;;2.98;79.30;163191.66;5016190;28;20111;-68
2022/02/14 06:25:37;;;;;;;1999.90;999.90;;;;;;;2.90;79.55;163169.69;5018147;28;20058;-68
2022/02/14 06:28:04;;;;;;;1999.90;999.90;;;;;;;2.63;80.62;163098.47;5010665;28;20245;-68
2022/02/14 06:30:31;;;;;;;1999.90;999.90;;;;;;;2.82;80.53;163150.50;5021335;28;20081;-68
2022/02/14 06:32:58;;;;;;;1999.90;999.90;;;;;;;2.82;80.26;163149.16;5023406;28;20045;-68
2022/02/14 06:35:24;;;;;;;1999.90;999.90;;;;;;;3.02;79.44;163202.56;5027976;28;20100;-67
2022/02/14 06:37:51;;;;;;;1999.90;999.90;;;;;;;3.09;79.42;163221.75;5019774;28;20050;-67
2022/02/14 06:40:17;;;;;;;1999.90;999.90;;;;;;;3.21;78.92;163251.91;5011304;28;20559;-67
2022/02/14 06:42:48;;;;;;;1999.90;999.90;;;;;;;3.23;78.65;163257.38;5014613;28;20423;-67
2022/02/14 06:45:16;;;;;;;1999.90;999.90;;;;;;;3.17;79.11;163242.31;5013033;28;20099;-67
2022/02/14 06:47:43;;;;;;;1999.90;999.90;;;;;;;3.44;78.17;163314.97;5011905;28;20045;-67
2022/02/14 06:50:10;;;;;;;1999.90;999.90;;;;;;;3.48;77.74;163324.53;5018016;28;20049;-67
2022/02/14 06:52:38;;;;;;;1999.90;999.90;;;;;;;3.38;78.29;163298.53;5019092;28;20045;-68
2022/02/14 06:55:07;;;;;;;1999.90;999.90;;;;;;;3.43;78.27;163312.22;5022942;28;20054;-67
2022/02/14 06:57:34;;;;;;;1999.90;999.90;;;;;;;3.57;77.97;163349.19;5020692;28;20081;-67
2022/02/14 07:00:08;;;;;;;1999.90;999.90;;;;;;;3.60;77.63;163356.06;5020369;28;20076;-67
2022/02/14 07:02:35;;;;;;;1999.90;999.90;;;;;;;3.60;77.81;163356.06;5016472;28;20053;-67
2022/02/14 07:05:03;;;;;;;1999.90;999.90;;;;;;;3.61;77.42;163360.19;5020293;28;20095;-67
2022/02/14 07:07:31;;;;;;;1999.90;999.90;;;;;;;3.56;78.32;163345.09;5018606;28;20478;-67
2022/02/14 07:09:57;;;;;;;1999.90;999.90;;;;;;;3.68;78.10;163378.03;5013432;28;20162;-67
2022/02/14 07:12:24;;;;;;;1999.90;999.90;;;;;;;3.83;77.54;163419.13;5014208;28;20057;-67
2022/02/14 07:14:52;;;;;;;1999.90;999.90;;;;;;;3.70;78.01;163383.50;5019279;28;20137;-67
2022/02/14 07:17:18;;;;;;;1999.90;999.90;;;;;;;3.72;78.21;163388.97;5015840;28;20069;-67
2022/02/14 07:19:45;;;;;;;1999.90;999.90;;;;;;;3.98;77.65;163458.91;5018007;28;20054;-67
2022/02/14 07:22:11;;;;;;;1999.90;999.90;;;;;;;3.97;77.25;163456.13;5013560;28;20076;-67
2022/02/14 07:24:38;;;;;;;1999.90;999.90;;;;;;;4.08;77.46;163483.56;5010422;28;20081;-67
2022/02/14 07:27:04;;;;;;;1999.90;999.90;;;;;;;4.30;76.72;163542.53;5021295;28;20579;-67
2022/02/14 07:29:31;;;;;;;1999.90;999.90;;;;;;;4.09;77.46;163486.31;5020631;28;20370;-67
2022/02/14 07:32:00;;;;;;;1999.90;999.90;;;;;;;4.13;77.23;163497.31;5022623;28;20430;-67
2022/02/14 07:34:27;;;;;;;1999.90;999.90;;;;;;;3.94;78.20;163446.56;5027991;28;20088;-67
2022/02/14 07:36:53;;;;;;;1999.90;999.90;;;;;;;4.10;77.85;163490.44;5023739;28;20045;-67
2022/02/14 07:39:20;;;;;;;1999.90;999.90;;;;;;;4.29;77.60;163541.19;5017725;28;20046;-67
2022/02/14 07:41:48;;;;;;;1999.90;999.90;;;;;;;4.28;77.52;163538.41;5011829;28;20092;-67
2022/02/14 07:44:14;;;;;;;1999.90;999.90;;;;;;;4.50;76.68;163597.41;5013355;28;20049;-67
2022/02/14 07:46:41;;;;;;;1999.90;999.90;;;;;;;4.54;76.23;163606.97;5019488;28;20545;-67
2022/02/14 07:49:08;;;;;;;1999.90;999.90;;;;;;;4.79;75.18;163672.84;5015568;28;20111;-67
2022/02/14 07:51:34;;;;;;;1999.90;999.90;;;;;;;4.95;74.84;163716.75;5013221;28;20081;-67
2022/02/14 07:54:00;;;;;;;1999.90;999.90;;;;;;;4.85;74.75;163689.31;5013227;28;20108;-67
2022/02/14 07:56:27;;;;;;;1999.90;999.90;;;;;;;5.02;74.39;163735.97;5019540;28;20450;-67
2022/02/14 07:58:55;;;;;;;1999.90;999.90;;;;;;;4.78;75.00;163671.50;5013653;28;20120;-67
2022/02/14 08:01:22;;;;;;;1999.90;999.90;;;;;;;4.95;74.52;163716.75;5015671;28;20053;-67
2022/02/14 08:03:48;;;;;;;1999.90;999.90;;;;;;;5.10;74.18;163756.53;5010167;28;20049;-67
2022/02/14 08:06:29;;;;;;;1999.90;999.90;;;;;;;5.34;73.73;163819.66;5013738;28;20124;-67
2022/02/14 08:08:56;;;;;;;1999.90;999.90;;;;;;;4.96;74.41;163718.09;5020489;28;20131;-67
2022/02/14 08:11:22;;;;;;;1999.90;999.90;;;;;;;4.65;76.13;163635.81;5018131;28;20089;-67
2022/02/14 08:13:49;;;;;;;1999.90;999.90;;;;;;;5.30;74.39;163810.06;5012140;28;20394;-67
2022/02/14 08:16:16;;;;;;;1999.90;999.90;;;;;;;5.68;73.70;163910.25;5010692;28;20111;-67
2022/02/14 08:18:42;;;;;;;1999.90;999.90;;;;;;;5.67;72.15;163907.50;5010704;28;20446;-67
2022/02/14 08:21:09;;;;;;;1999.90;999.90;;;;;;;5.87;71.68;163962.41;5018222;28;20041;-67
2022/02/14 08:23:35;;;;;;;1999.90;999.90;;;;;;;5.84;71.08;163954.19;5020220;28;20401;-68
2022/02/14 08:26:02;;;;;;;1999.90;999.90;;;;;;;5.85;71.57;163955.53;5023264;28;20415;-69
2022/02/14 08:28:28;;;;;;;1999.90;999.90;;;;;;;6.03;71.18;164005.03;5024219;28;20046;-67
2022/02/14 08:30:55;;;;;;;1999.90;999.90;;;;;;;6.31;70.41;164080.56;5027827;28;20107;-67
2022/02/14 08:33:21;;;;;;;1999.90;999.90;;;;;;;6.35;69.63;164090.16;5018806;28;20065;-67
2022/02/14 08:35:48;;;;;;;1999.90;999.90;;;;;;;6.77;69.10;164201.41;5015905;28;20104;-67
2022/02/14 08:38:14;;;;;;;1999.90;999.90;;;;;;;6.84;68.48;164222.03;5009635;28;20447;-67
2022/02/14 08:40:41;;;;;;;1999.90;999.90;;;;;;;6.45;68.73;164116.28;5021190;28;20517;-68
2022/02/14 08:43:08;;;;;;;1999.90;999.90;;;;;;;6.83;68.62;164217.91;5027409;28;20054;-67
2022/02/14 08:45:54;;;;;;;1999.90;999.90;;;;;;;7.08;66.57;164283.88;5022523;28;20037;-67
2022/02/14 08:48:21;;;;;;;1999.90;999.90;;;;;;;7.18;66.70;164312.72;5020508;28;20201;-67
2022/02/14 08:50:49;;;;;;;1999.90;999.90;;;;;;;7.30;64.78;164342.97;5014349;28;20108;-67
2022/02/14 08:53:17;;;;;;;1999.90;999.90;;;;;;;7.43;64.99;164378.69;5023536;28;20045;-67
2022/02/14 08:55:44;;;;;;;1999.90;999.90;;;;;;;7.60;64.80;164424.03;5022179;28;20064;-68
2022/02/14 08:58:10;;;;;;;1999.90;999.90;;;;;;;7.97;63.33;164521.66;5017399;28;20123;-67
2022/02/14 09:00:37;;;;;;;1999.90;999.90;;;;;;;7.97;63.41;164523.00;5021996;28;20079;-67
2022/02/14 09:03:04;;;;;;;1999.90;999.90;;;;;;;8.31;61.94;164613.78;5014952;28;20061;-67
2022/02/14 09:05:31;;;;;;;1999.90;999.90;;;;;;;7.83;62.36;164484.50;5021317;28;20056;-68
2022/02/14 09:07:57;;;;;;;1999.90;999.90;;;;;;;8.25;62.09;164597.28;5015783;28;20058;-67
2022/02/14 09:10:24;;;;;;;1999.90;999.90;;;;;;;7.98;61.91;164524.38;5015242;28;20049;-68
2022/02/14 09:12:51;;;;;;;1999.90;999.90;;;;;;;8.07;63.17;164550.50;5021142;28;20080;-68
2022/02/14 09:15:17;;;;;;;1999.90;999.90;;;;;;;7.50;63.46;164396.53;5027093;28;20270;-68
2022/02/14 09:17:44;;;;;;;1999.90;999.90;;;;;;;7.80;64.21;164477.66;5020018;28;20080;-68
2022/02/14 09:20:11;;;;;;;1999.90;999.90;;;;;;;8.38;62.42;164633.03;5024247;28;20438;-69
2022/02/14 09:22:38;;;;;;;1999.90;999.90;;;;;;;8.67;60.76;164708.72;5023219;28;20390;-68
2022/02/14 09:25:05;;;;;;;1999.90;999.90;;;;;;;9.21;59.54;164854.53;5021052;28;20099;-67
2022/02/14 09:27:31;;;;;;;1999.90;999.90;;;;;;;9.66;59.00;164975.66;5017024;28;20053;-68
2022/02/14 09:29:58;;;;;;;1999.90;999.90;;;;;;;9.22;59.00;164855.94;5022360;28;20139;-68
2022/02/14 09:32:26;;;;;;;1999.90;999.90;;;;;;;8.87;59.29;164763.72;5014617;28;20402;-69
2022/02/14 09:34:52;;;;;;;1999.90;999.90;;;;;;;8.64;58.69;164701.84;5012955;28;20062;-68
2022/02/14 09:37:18;;;;;;;1999.90;999.90;;;;;;;7.93;61.10;164513.41;5020649;28;20073;-68
2022/02/14 09:39:45;;;;;;;1999.90;999.90;;;;;;;8.42;60.37;164642.63;5016402;28;20077;-68
2022/02/14 09:42:11;;;;;;;1999.90;999.90;;;;;;;8.03;61.85;164539.50;5017575;28;20349;-68
2022/02/14 09:44:38;;;;;;;1999.90;999.90;;;;;;;7.28;63.14;164338.84;5019297;28;20049;-68
2022/02/14 09:47:05;;;;;;;1999.90;999.90;;;;;;;7.87;61.63;164495.50;5013319;28;20080;-68
2022/02/14 09:49:34;;;;;;;1999.90;999.90;;;;;;;8.21;61.71;164586.25;5021908;28;20046;-68
2022/02/14 09:52:00;;;;;;;1999.90;999.90;;;;;;;9.15;59.49;164839.44;5024664;28;20422;-68
2022/02/14 09:54:27;;;;;;;1999.90;999.90;;;;;;;8.72;59.41;164723.81;5017203;28;20418;-68
2022/02/14 09:56:53;;;;;;;1999.90;999.90;;;;;;;8.69;59.13;164715.56;5018071;28;20074;-68
2022/02/14 09:59:21;;;;;;;1999.90;999.90;;;;;;;9.02;59.18;164803.66;5018528;28;20132;-68
2022/02/14 10:01:48;;;;;;;1999.90;999.90;;;;;;;9.28;58.43;164873.78;5019057;28;20393;-68
2022/02/14 10:04:15;;;;;;;1999.90;999.90;;;;;;;9.94;56.45;165048.59;5019419;28;20069;-68
2022/02/14 10:06:46;;;;;;;1999.90;999.90;;;;;;;9.67;55.96;164978.38;5014614;28;20041;-68
2022/02/14 10:09:22;;;;;;;1999.90;999.90;;;;;;;8.79;57.09;164741.72;5018336;28;20081;-68
2022/02/14 10:11:59;;;;;;;1999.90;999.90;;;;;;;8.31;59.30;164613.78;5021288;28;20049;-68
2022/02/14 10:14:26;;;;;;;1999.90;999.90;;;;;;;8.69;59.53;164714.22;5014054;28;20064;-68
2022/02/14 10:17:04;;;;;;;1999.90;999.90;;;;;;;9.12;58.83;164829.75;5023465;28;20492;-67
2022/02/14 10:19:34;;;;;;;1999.90;999.90;;;;;;;9.37;57.80;164895.84;5022437;28;20049;-68
2022/02/14 10:22:01;;;;;;;1999.90;999.90;;;;;;;9.90;56.67;165038.97;5024554;28;20490;-68
2022/02/14 10:24:28;;;;;;;1999.90;999.90;;;;;;;9.68;55.85;164979.78;5024023;28;20061;-68
2022/02/14 10:26:55;;;;;;;1999.90;999.90;;;;;;;9.70;55.60;164985.25;5015073;28;20455;-68
2022/02/14 10:29:30;;;;;;;1999.90;999.90;;;;;;;10.30;54.38;165144.97;5021466;28;20053;-68
2022/02/14 10:31:58;;;;;;;1999.90;999.90;;;;;;;9.69;54.85;164982.50;5025400;28;20049;-68
2022/02/14 10:34:38;;;;;;;1999.90;999.90;;;;;;;10.29;54.61;165143.59;5020208;28;20526;-68
2022/02/14 10:37:06;;;;;;;1999.90;999.90;;;;;;;10.41;52.59;165175.31;5015827;28;20053;-68
2022/02/14 10:39:33;;;;;;;1999.90;999.90;;;;;;;10.42;53.33;165178.09;5010550;28;20077;-67
2022/02/14 10:42:05;;;;;;;1999.90;999.90;;;;;;;10.81;51.63;165281.34;5021325;28;20451;-68
2022/02/14 10:47:28;;;;;;;1999.90;999.90;;;;;;;11.96;49.33;165591.41;5021150;28;20103;-68
2022/02/14 10:50:04;;;;;;;1999.90;999.90;;;;;;;11.05;50.25;165347.47;5024405;28;20053;-68
2022/02/14 10:52:55;;;;;;;1999.90;999.90;;;;;;;11.68;49.81;165514.22;5011244;28;20050;-68
2022/02/14 10:55:34;;;;;;;1999.90;999.90;;;;;;;11.04;50.33;165344.72;5024149;28;20049;-68
2022/02/14 10:58:02;;;;;;;1999.90;999.90;;;;;;;11.70;49.50;165519.69;5014407;28;20485;-68